Time;durP1;ratioP1;P1;durP2;ratioP2;P2;SDS_P1;SDS_P2;PMS_P1;PMS_P2;Temp;Humidity;BMP_temperature;BMP_pressure;BME280_temperature;BME280_humidity;BME280_pressure;Samples;Min_cycle;Max_cycle;Signal;HPM_P1;HPM_P2
2020/12/02 00:00:17;;;;;;;19.83;11.87;;;;;;;0.28;84.14;100592.67;130258;1098;23155;-59
2020/12/02 00:02:53;;;;;;;17.02;10.10;;;;;;;0.27;84.14;100593.67;130084;1093;23161;-59
2020/12/02 00:05:21;;;;;;;18.07;11.23;;;;;;;0.32;84.97;100601.20;130184;1093;23253;-59
2020/12/02 00:07:50;;;;;;;18.37;10.53;;;;;;;0.33;84.94;100606.39;130063;1090;23368;-60
2020/12/02 00:10:18;;;;;;;22.80;11.00;;;;;;;0.33;85.05;100610.91;130208;1089;23211;-59
2020/12/02 00:12:45;;;;;;;20.37;10.93;;;;;;;0.32;84.55;100604.72;130093;1092;23174;-59
2020/12/02 00:15:13;;;;;;;18.50;9.50;;;;;;;0.33;85.33;100605.56;130180;1092;23923;-59
2020/12/02 00:17:40;;;;;;;17.43;9.60;;;;;;;0.29;85.28;100602.36;130256;1093;23189;-59
2020/12/02 00:20:07;;;;;;;15.23;8.70;;;;;;;0.26;84.23;100604.56;130116;1098;23226;-59
2020/12/02 00:22:36;;;;;;;15.67;9.27;;;;;;;0.26;85.18;100609.91;130229;1093;24114;-59
2020/12/02 00:25:05;;;;;;;14.90;8.53;;;;;;;0.25;84.50;100605.56;130092;1093;23156;-59
2020/12/02 00:27:38;;;;;;;12.33;7.77;;;;;;;0.23;84.28;100597.68;130206;1092;23857;-59
2020/12/02 00:30:09;;;;;;;14.57;7.77;;;;;;;0.22;84.69;100605.88;130096;1092;23298;-60
2020/12/02 00:32:38;;;;;;;15.53;9.03;;;;;;;0.20;85.55;100600.69;130236;1099;24103;-59
2020/12/02 00:35:08;;;;;;;14.40;9.00;;;;;;;0.18;85.60;100605.36;130087;1093;23162;-59
2020/12/02 00:37:35;;;;;;;14.20;8.93;;;;;;;0.17;84.49;100601.00;130201;1092;24352;-60
2020/12/02 00:40:03;;;;;;;16.10;8.43;;;;;;;0.19;85.20;100604.36;130132;1090;23215;-59
2020/12/02 00:42:31;;;;;;;11.23;6.77;;;;;;;0.19;84.48;100603.52;130242;1093;23775;-59
2020/12/02 00:44:58;;;;;;;14.80;7.30;;;;;;;0.19;85.16;100604.36;130083;1090;23198;-59
2020/12/02 00:47:26;;;;;;;11.17;7.90;;;;;;;0.19;85.65;100607.04;130198;1093;23887;-59
2020/12/02 00:49:55;;;;;;;13.80;8.23;;;;;;;0.17;85.29;100608.20;130090;1093;23184;-59
2020/12/02 00:52:23;;;;;;;14.83;9.33;;;;;;;0.16;84.74;100604.69;130210;1098;23158;-59
2020/12/02 00:54:51;;;;;;;16.43;8.20;;;;;;;0.14;84.43;100609.39;130028;1093;23244;-59
2020/12/02 00:57:25;;;;;;;11.93;7.50;;;;;;;0.16;84.64;100609.20;130231;1092;23959;-59
2020/12/02 00:59:54;;;;;;;11.63;6.53;;;;;;;0.17;84.64;100611.72;130094;1099;23211;-59
2020/12/02 01:02:43;;;;;;;14.30;7.60;;;;;;;0.18;85.42;100605.36;130192;1092;23177;-59
2020/12/02 01:05:12;;;;;;;12.40;7.60;;;;;;;0.18;85.44;100600.00;130097;1090;23940;-59
2020/12/02 01:07:41;;;;;;;13.80;7.70;;;;;;;0.19;85.30;100596.32;130230;1098;23187;-59
2020/12/02 01:10:09;;;;;;;13.67;8.63;;;;;;;0.21;84.74;100598.84;130062;1090;23244;-59
2020/12/02 01:12:37;;;;;;;14.13;8.60;;;;;;;0.19;84.66;100596.32;130200;1099;23869;-59
2020/12/02 01:15:08;;;;;;;16.00;8.57;;;;;;;0.23;85.37;100595.00;130141;1093;23238;-59
2020/12/02 01:17:39;;;;;;;11.23;6.67;;;;;;;0.26;84.57;100596.52;130266;1093;23157;-59
2020/12/02 01:20:13;;;;;;;12.77;7.77;;;;;;;0.28;84.60;100594.52;130200;1092;23262;-59
2020/12/02 01:22:40;;;;;;;14.10;7.73;;;;;;;0.27;84.85;100599.03;130122;1093;23167;-59
2020/12/02 01:25:19;;;;;;;14.10;8.60;;;;;;;0.25;85.33;100584.95;130240;1098;23663;-58
2020/12/02 01:27:56;;;;;;;16.23;9.33;;;;;;;0.25;84.66;100595.67;130117;1092;23191;-59
2020/12/02 01:30:23;;;;;;;15.72;9.28;;;;;;;0.25;84.91;100584.95;130160;1093;23214;-59
2020/12/02 01:32:53;;;;;;;13.93;8.23;;;;;;;0.23;84.46;100586.96;130087;1098;23178;-59
2020/12/02 01:35:23;;;;;;;14.10;7.87;;;;;;;0.24;84.01;100585.12;130255;1092;24804;-59
2020/12/02 01:37:53;;;;;;;13.77;8.40;;;;;;;0.24;85.16;100583.28;130119;1093;23179;-59
2020/12/02 01:40:26;;;;;;;13.13;7.33;;;;;;;0.24;85.16;100583.28;130276;1098;23147;-59
2020/12/02 01:42:56;;;;;;;14.80;8.40;;;;;;;0.21;85.45;100578.24;130121;1090;24087;-59
2020/12/02 01:45:32;;;;;;;13.65;8.10;;;;;;;0.22;84.32;100582.60;130233;1098;23287;-59
2020/12/02 01:48:24;;;;;;;15.30;9.87;;;;;;;0.22;85.17;100584.44;130042;1098;23275;-59
2020/12/02 01:51:10;;;;;;;13.30;8.00;;;;;;;0.20;85.21;100576.56;130242;1093;24103;-59
2020/12/02 01:53:38;;;;;;;13.33;7.93;;;;;;;0.20;85.16;100581.08;130079;1092;23167;-60
2020/12/02 01:56:12;;;;;;;16.37;7.50;;;;;;;0.20;85.16;100567.69;130224;1098;23173;-59
2020/12/02 01:58:55;;;;;;;15.03;8.50;;;;;;;0.19;85.24;100568.69;130097;1093;23191;-59
2020/12/02 02:01:51;;;;;;;19.43;9.63;;;;;;;0.18;85.05;100564.33;130254;1098;23177;-59
2020/12/02 02:04:19;;;;;;;16.13;9.03;;;;;;;0.17;85.42;100571.53;130182;1098;23169;-59
2020/12/02 02:06:59;;;;;;;14.95;8.10;;;;;;;0.18;84.59;100575.05;130221;1093;23218;-59
2020/12/02 02:09:28;;;;;;;16.80;8.13;;;;;;;0.20;85.86;100565.00;130064;1093;24211;-59
2020/12/02 02:12:11;;;;;;;13.07;8.10;;;;;;;0.24;84.13;100566.36;130243;1093;23230;-59
2020/12/02 02:14:46;;;;;;;14.20;7.70;;;;;;;0.22;85.36;100563.84;130060;1091;23168;-59
2020/12/02 02:17:13;;;;;;;14.90;7.60;;;;;;;0.21;84.34;100564.84;130223;1098;23222;-59
2020/12/02 02:19:41;;;;;;;14.97;8.87;;;;;;;0.23;84.67;100568.20;130062;1090;23148;-59
2020/12/02 02:22:08;;;;;;;20.75;10.40;;;;;;;0.23;84.51;100564.68;130233;1092;23188;-59
2020/12/02 02:24:36;;;;;;;16.13;8.97;;;;;;;0.22;85.53;100566.52;130109;1098;23305;-59
2020/12/02 02:27:04;;;;;;;20.00;10.70;;;;;;;0.23;85.25;100567.36;130222;1093;23217;-60
2020/12/02 02:29:36;;;;;;;21.17;9.80;;;;;;;0.22;84.88;100569.20;130081;1093;23320;-59
2020/12/02 02:32:12;;;;;;;18.27;10.03;;;;;;;0.20;84.12;100565.84;130222;1093;23219;-59
2020/12/02 02:34:42;;;;;;;15.70;8.87;;;;;;;0.19;84.02;100560.64;130066;1093;23870;-59
2020/12/02 02:37:14;;;;;;;14.20;9.17;;;;;;;0.16;85.12;100560.97;130250;1098;23869;-59
2020/12/02 02:39:49;;;;;;;14.30;8.53;;;;;;;0.13;84.50;100569.36;130043;1093;23195;-59
2020/12/02 02:42:36;;;;;;;20.00;10.33;;;;;;;0.09;84.07;100568.84;130261;1093;23241;-59
2020/12/02 02:45:18;;;;;;;16.30;8.88;;;;;;;0.06;84.13;100568.33;130104;1090;23251;-59
2020/12/02 02:47:55;;;;;;;14.78;8.73;;;;;;;0.03;84.30;100572.17;130197;1093;23325;-59
2020/12/02 02:50:26;;;;;;;15.60;8.77;;;;;;;-0.01;83.61;100573.53;130077;1090;24595;-59
2020/12/02 02:52:57;;;;;;;18.87;9.97;;;;;;;-0.04;84.58;100576.53;130244;1098;23183;-59
2020/12/02 02:55:25;;;;;;;18.30;10.17;;;;;;;-0.08;84.58;100565.29;130016;1093;24623;-59
2020/12/02 02:57:53;;;;;;;16.33;9.80;;;;;;;-0.12;84.30;100574.65;130255;1090;23325;-59
2020/12/02 03:00:26;;;;;;;16.03;8.67;;;;;;;-0.13;83.43;100577.48;130131;1090;23251;-59
2020/12/02 03:04:55;;;;;;;17.53;9.13;;;;;;;-0.15;84.55;100582.20;125597;1100;23315;-58
2020/12/02 03:07:25;;;;;;;18.53;10.10;;;;;;;-0.18;84.29;100580.67;125344;1093;23446;-58
2020/12/02 03:09:55;;;;;;;18.40;10.17;;;;;;;-0.20;83.60;100576.48;125333;1093;23375;-59
2020/12/02 03:12:23;;;;;;;17.70;8.60;;;;;;;-0.21;83.66;100580.16;129920;1093;23225;-59
2020/12/02 03:14:50;;;;;;;19.63;9.00;;;;;;;-0.23;83.62;100576.80;129808;1095;23848;-60
2020/12/02 03:17:19;;;;;;;20.30;9.10;;;;;;;-0.24;84.67;100583.15;129905;1093;23156;-60
2020/12/02 03:19:58;;;;;;;18.97;9.93;;;;;;;-0.26;84.60;100575.27;129911;1096;23159;-59
2020/12/02 03:22:27;;;;;;;16.57;9.50;;;;;;;-0.28;84.04;100577.27;130198;1092;23291;-59
2020/12/02 03:24:59;;;;;;;18.63;10.23;;;;;;;-0.29;84.29;100574.78;130203;1098;23276;-60
2020/12/02 03:27:26;;;;;;;16.97;9.47;;;;;;;-0.32;84.35;100570.59;130094;1093;23312;-59
2020/12/02 03:29:54;;;;;;;17.93;9.60;;;;;;;-0.32;84.14;100575.94;130256;1092;23226;-60
2020/12/02 03:32:21;;;;;;;17.43;9.20;;;;;;;-0.30;84.93;100573.10;130036;1093;23809;-59
2020/12/02 03:34:51;;;;;;;16.27;9.10;;;;;;;-0.33;84.93;100576.09;130238;1093;23297;-60
2020/12/02 03:37:19;;;;;;;19.93;10.80;;;;;;;-0.35;84.39;100573.58;130069;1099;23175;-60
2020/12/02 03:39:49;;;;;;;25.90;10.93;;;;;;;-0.39;85.07;100570.38;130186;1093;23307;-59
2020/12/02 03:42:17;;;;;;;24.40;11.43;;;;;;;-0.39;84.00;100567.70;130083;1092;23246;-60
2020/12/02 03:44:45;;;;;;;25.17;12.60;;;;;;;-0.39;84.00;100565.02;130216;1092;23165;-60
2020/12/02 03:47:18;;;;;;;36.17;12.80;;;;;;;-0.33;85.13;100570.75;130097;1093;23219;-60
2020/12/02 03:49:45;;;;;;;30.73;13.50;;;;;;;-0.32;84.24;100570.59;130277;1099;23210;-59
2020/12/02 03:52:13;;;;;;;32.57;16.23;;;;;;;-0.31;84.23;100572.27;130078;1093;23281;-60
2020/12/02 03:54:40;;;;;;;27.97;14.20;;;;;;;-0.30;84.60;100573.10;130200;1092;23864;-60
2020/12/02 03:57:08;;;;;;;27.47;13.33;;;;;;;-0.29;85.33;100569.43;130094;1099;23759;-60
2020/12/02 03:59:37;;;;;;;30.63;14.57;;;;;;;-0.28;84.33;100577.27;130274;1093;24275;-60
2020/12/02 04:02:04;;;;;;;47.03;17.07;;;;;;;-0.30;84.54;100573.95;130051;1092;23240;-59
2020/12/02 04:04:32;;;;;;;29.93;14.43;;;;;;;-0.31;85.09;100572.27;130165;1092;23253;-59
2020/12/02 04:06:59;;;;;;;48.07;17.63;;;;;;;-0.35;85.00;100576.26;130111;1093;23162;-60
2020/12/02 04:09:27;;;;;;;56.90;20.77;;;;;;;-0.38;84.10;100580.09;130196;1098;23211;-60
2020/12/02 04:11:56;;;;;;;48.83;17.60;;;;;;;-0.39;84.11;100577.57;130252;1093;23196;-60
2020/12/02 04:14:24;;;;;;;40.20;13.87;;;;;;;-0.42;84.36;100577.89;130151;1093;23251;-60
2020/12/02 04:16:51;;;;;;;36.50;14.07;;;;;;;-0.42;84.96;100586.76;130185;1093;24130;-60
2020/12/02 04:19:20;;;;;;;35.83;14.47;;;;;;;-0.41;84.78;100580.41;130077;1092;23231;-59
2020/12/02 04:21:56;;;;;;;40.97;16.67;;;;;;;-0.44;84.43;100580.75;130203;1099;23350;-60
2020/12/02 04:24:29;;;;;;;37.93;15.77;;;;;;;-0.46;83.97;100584.59;130067;1092;23176;-59
2020/12/02 04:26:57;;;;;;;31.00;14.03;;;;;;;-0.50;83.77;100589.41;130195;1093;23189;-59
2020/12/02 04:29:24;;;;;;;23.17;12.60;;;;;;;-0.49;84.29;100590.25;130126;1092;23201;-59
2020/12/02 04:31:51;;;;;;;19.97;11.53;;;;;;;-0.52;83.75;100583.38;130182;1093;23935;-59
2020/12/02 04:34:21;;;;;;;26.20;13.03;;;;;;;-0.56;83.98;100586.52;130106;1093;23248;-60
2020/12/02 04:36:49;;;;;;;23.60;13.27;;;;;;;-0.61;84.46;100583.52;130213;1092;23200;-60
2020/12/02 04:39:23;;;;;;;22.67;12.27;;;;;;;-0.65;84.37;100585.66;130042;1092;23165;-59
2020/12/02 04:41:50;;;;;;;29.40;13.87;;;;;;;-0.65;83.86;100588.34;130184;1092;23239;-59
2020/12/02 04:44:18;;;;;;;26.27;14.03;;;;;;;-0.66;84.26;100583.14;130086;1093;24142;-59
2020/12/02 04:46:46;;;;;;;27.53;13.87;;;;;;;-0.65;84.39;100584.82;130227;1092;23930;-59
2020/12/02 04:49:26;;;;;;;26.70;13.10;;;;;;;-0.63;83.99;100580.16;130086;1092;23229;-59
2020/12/02 04:51:57;;;;;;;27.13;13.47;;;;;;;-0.64;84.13;100581.98;130189;1092;23827;-59
2020/12/02 04:54:24;;;;;;;24.43;12.50;;;;;;;-0.69;83.86;100573.59;130047;1092;23249;-59
2020/12/02 04:56:52;;;;;;;27.87;14.73;;;;;;;-0.70;84.25;100579.94;130202;1093;23228;-59
2020/12/02 04:59:19;;;;;;;35.53;13.60;;;;;;;-0.69;83.36;100581.62;130068;1093;23251;-59
2020/12/02 05:01:53;;;;;;;24.37;12.20;;;;;;;-0.70;83.96;100579.94;130191;1099;23308;-59
2020/12/02 05:04:25;;;;;;;26.23;13.37;;;;;;;-0.67;84.07;100578.78;130037;1092;23166;-59
2020/12/02 05:07:05;;;;;;;31.93;13.37;;;;;;;-0.67;83.65;100576.11;130207;1093;23225;-60
2020/12/02 05:09:35;;;;;;;22.27;12.00;;;;;;;-0.67;83.13;100584.14;130071;1099;23260;-59
2020/12/02 05:12:07;;;;;;;26.40;13.63;;;;;;;-0.67;83.40;100576.95;130218;1093;23161;-60
2020/12/02 05:14:37;;;;;;;24.73;12.73;;;;;;;-0.67;83.28;100581.46;130033;1093;23158;-60
2020/12/02 05:17:17;;;;;;;22.80;12.33;;;;;;;-0.68;83.26;100587.81;130241;1099;24239;-59
2020/12/02 05:20:09;;;;;;;24.47;12.67;;;;;;;-0.69;83.69;100592.32;130071;1093;23178;-60
2020/12/02 05:22:41;;;;;;;21.90;12.03;;;;;;;-0.69;83.10;100591.48;130205;1092;23222;-59
2020/12/02 05:25:24;;;;;;;21.50;11.67;;;;;;;-0.68;83.00;100585.97;130069;1093;27288;-59
2020/12/02 05:28:04;;;;;;;26.03;11.77;;;;;;;-0.68;84.00;100591.33;130207;1093;24156;-60
2020/12/02 05:30:34;;;;;;;22.17;12.17;;;;;;;-0.68;83.00;100588.65;130086;1092;23197;-60
2020/12/02 05:33:12;;;;;;;21.13;10.47;;;;;;;-0.68;83.21;100602.03;130192;1092;23914;-59
2020/12/02 05:35:56;;;;;;;22.47;11.63;;;;;;;-0.66;83.80;100593.84;130060;1093;23173;-63
2020/12/02 05:38:32;;;;;;;22.57;10.27;;;;;;;-0.66;84.21;100599.20;130243;1099;24154;-63
2020/12/02 05:41:00;;;;;;;23.33;12.13;;;;;;;-0.64;83.62;100592.69;130066;1093;23189;-63
2020/12/02 05:43:33;;;;;;;21.37;11.03;;;;;;;-0.66;83.49;100594.69;130225;1093;24619;-63
2020/12/02 05:46:28;;;;;;;19.93;11.57;;;;;;;-0.63;83.96;100593.53;130101;1093;23175;-63
2020/12/02 05:49:04;;;;;;;18.97;10.60;;;;;;;-0.60;83.79;100599.41;130210;1093;23210;-63
2020/12/02 05:51:33;;;;;;;22.93;11.83;;;;;;;-0.61;83.26;100597.73;130075;1093;23270;-63
2020/12/02 05:54:12;;;;;;;19.47;10.23;;;;;;;-0.64;84.05;100606.08;130222;1099;23169;-63
2020/12/02 05:56:39;;;;;;;18.47;9.37;;;;;;;-0.68;83.71;100601.19;130057;1092;23265;-63
2020/12/02 05:59:07;;;;;;;14.40;8.17;;;;;;;-0.68;83.99;100598.52;130231;1093;23259;-63
2020/12/02 06:01:35;;;;;;;16.27;8.53;;;;;;;-0.73;83.89;100602.53;130172;1093;23290;-63
2020/12/02 06:04:02;;;;;;;19.97;9.63;;;;;;;-0.74;83.63;100608.88;130234;1092;23292;-63
2020/12/02 06:06:32;;;;;;;22.20;9.57;;;;;;;-0.77;83.93;100609.19;130193;1098;23196;-60
2020/12/02 06:09:00;;;;;;;22.43;11.30;;;;;;;-0.78;83.59;100612.02;130220;1093;23162;-60
2020/12/02 06:11:34;;;;;;;20.33;11.00;;;;;;;-0.79;84.13;100610.34;130206;1093;23194;-59
2020/12/02 06:14:31;;;;;;;15.80;8.43;;;;;;;-0.80;83.78;100622.88;130195;1092;23133;-60
2020/12/02 06:17:04;;;;;;;21.30;10.17;;;;;;;-0.78;83.65;100620.88;130101;1093;23283;-60
2020/12/02 06:19:45;;;;;;;19.77;11.57;;;;;;;-0.76;84.11;100613.54;130229;1092;23295;-59
2020/12/02 06:22:51;;;;;;;22.10;12.70;;;;;;;-0.74;84.03;100614.23;130067;1093;26894;-60
2020/12/02 06:25:54;;;;;;;19.47;10.03;;;;;;;-0.72;83.68;100609.53;130211;1093;23968;-60
2020/12/02 06:28:22;;;;;;;16.33;9.33;;;;;;;-0.70;84.10;100617.40;130081;1093;23157;-60
2020/12/02 06:30:56;;;;;;;15.53;9.70;;;;;;;-0.69;84.11;100611.05;130222;1099;23220;-59
2020/12/02 06:33:35;;;;;;;15.10;9.10;;;;;;;-0.68;84.12;100610.05;130067;1093;23221;-60
2020/12/02 06:36:19;;;;;;;12.67;8.03;;;;;;;-0.67;83.91;100610.90;130204;1093;24126;-59
2020/12/02 06:38:48;;;;;;;15.13;8.70;;;;;;;-0.68;83.85;100617.25;130066;1092;23242;-59
2020/12/02 06:41:22;;;;;;;14.60;7.80;;;;;;;-0.66;83.48;100616.09;130187;1092;23231;-60
2020/12/02 06:43:56;;;;;;;15.60;7.37;;;;;;;-0.67;84.08;100616.25;130057;1093;23201;-59
2020/12/02 06:46:55;;;;;;;70.17;23.67;;;;;;;-0.69;83.39;100616.41;130233;1098;23177;-59
2020/12/02 06:49:28;;;;;;;18.40;10.48;;;;;;;-0.68;83.31;100623.44;130101;1092;23230;-59
2020/12/02 06:52:02;;;;;;;27.70;12.90;;;;;;;-0.68;84.22;100620.77;130200;1092;23274;-59
2020/12/02 06:54:32;;;;;;;37.10;19.63;;;;;;;-0.66;83.31;100621.45;130072;1098;23177;-59
2020/12/02 06:57:07;;;;;;;38.27;17.50;;;;;;;-0.67;83.99;100618.92;130207;1093;24216;-60
2020/12/02 06:59:57;;;;;;;17.03;9.97;;;;;;;-0.66;83.55;100621.45;130062;1092;23157;-59
2020/12/02 07:02:29;;;;;;;21.57;11.27;;;;;;;-0.65;84.29;100616.94;130221;1099;23131;-59
2020/12/02 07:05:02;;;;;;;17.37;9.73;;;;;;;-0.65;83.86;100617.77;130011;1092;23887;-60
2020/12/02 07:07:32;;;;;;;16.53;9.87;;;;;;;-0.66;83.30;100617.93;129862;1092;23366;-60
2020/12/02 07:09:59;;;;;;;25.80;10.20;;;;;;;-0.66;83.78;100615.25;130206;1099;23212;-59
2020/12/02 07:12:28;;;;;;;20.27;12.07;;;;;;;-0.65;84.24;100619.61;130084;1093;23245;-60
2020/12/02 07:15:01;;;;;;;25.97;13.60;;;;;;;-0.61;83.60;100623.66;130228;1093;23172;-59
2020/12/02 07:17:28;;;;;;;24.30;11.17;;;;;;;-0.61;83.22;100616.47;130029;1093;23232;-59
2020/12/02 07:20:04;;;;;;;69.57;22.53;;;;;;;-0.58;84.14;100618.83;130210;1092;23216;-59
2020/12/02 07:22:34;;;;;;;41.87;16.90;;;;;;;-0.56;83.92;100622.16;130115;1092;29968;-59
2020/12/02 07:25:05;;;;;;;22.63;12.30;;;;;;;-0.54;83.87;100622.84;130102;1093;23336;-60
2020/12/02 07:27:41;;;;;;;20.23;9.73;;;;;;;-0.53;83.91;100619.17;130098;1093;23214;-60
2020/12/02 07:30:18;;;;;;;14.43;8.03;;;;;;;-0.51;83.90;100619.86;130226;1099;23213;-60
2020/12/02 07:32:48;;;;;;;30.97;12.80;;;;;;;-0.49;83.95;100611.67;130005;1093;23198;-59
2020/12/02 07:35:16;;;;;;;32.70;14.07;;;;;;;-0.47;83.23;100615.88;130225;1093;23228;-59
2020/12/02 07:37:48;;;;;;;25.53;12.47;;;;;;;-0.47;83.79;100621.22;130174;1098;23294;-60
2020/12/02 07:40:32;;;;;;;26.50;12.20;;;;;;;-0.47;82.84;100621.22;130179;1099;23225;-60
2020/12/02 07:42:59;;;;;;;20.47;9.97;;;;;;;-0.45;82.63;100626.42;130179;1093;23234;-60
2020/12/02 07:45:31;;;;;;;17.77;10.13;;;;;;;-0.44;82.70;100628.10;130108;1093;23174;-60
2020/12/02 07:48:02;;;;;;;15.07;8.67;;;;;;;-0.45;82.58;100621.91;130136;1093;23172;-60
2020/12/02 07:50:39;;;;;;;16.15;9.00;;;;;;;-0.46;82.44;100628.26;130082;1093;23157;-60
2020/12/02 07:53:11;;;;;;;15.23;9.27;;;;;;;-0.47;83.34;100628.41;130158;1093;23911;-60
2020/12/02 07:55:46;;;;;;;14.10;8.50;;;;;;;-0.46;82.34;100628.26;130069;1093;26829;-60
2020/12/02 07:58:19;;;;;;;22.30;10.23;;;;;;;-0.46;82.32;100630.09;130179;1093;23169;-60
2020/12/02 08:00:47;;;;;;;15.50;9.17;;;;;;;-0.44;82.54;100625.42;130013;1093;23177;-59
2020/12/02 08:03:36;;;;;;;18.67;8.83;;;;;;;-0.44;82.23;100622.75;130223;1093;23218;-60
2020/12/02 08:06:05;;;;;;;17.83;9.67;;;;;;;-0.42;83.53;100615.37;130094;1093;24123;-62
2020/12/02 08:08:33;;;;;;;23.70;13.33;;;;;;;-0.41;83.54;100623.24;130232;1093;23224;-63
2020/12/02 08:11:05;;;;;;;21.20;11.70;;;;;;;-0.39;83.40;100617.73;130121;1099;23168;-63
2020/12/02 08:13:34;;;;;;;22.70;12.05;;;;;;;-0.40;82.55;100616.05;130261;1093;23311;-63
2020/12/02 08:16:02;;;;;;;21.73;11.23;;;;;;;-0.41;82.79;100620.56;130052;1092;23173;-63
2020/12/02 08:18:31;;;;;;;18.97;10.83;;;;;;;-0.40;83.40;100622.24;130242;1099;24581;-63
2020/12/02 08:21:12;;;;;;;20.23;11.53;;;;;;;-0.37;82.97;100618.41;130076;1093;23622;-63
2020/12/02 08:23:41;;;;;;;19.17;11.27;;;;;;;-0.36;82.37;100618.26;130228;1093;23212;-64
2020/12/02 08:26:17;;;;;;;17.07;9.83;;;;;;;-0.33;82.63;100622.45;130070;1099;24163;-64
2020/12/02 08:28:45;;;;;;;22.17;12.97;;;;;;;-0.33;83.35;100622.45;130144;1093;23306;-64
2020/12/02 08:31:22;;;;;;;18.37;10.17;;;;;;;-0.33;82.73;100617.10;130072;1093;23283;-64
2020/12/02 08:34:10;;;;;;;17.07;9.10;;;;;;;-0.31;83.53;100611.59;130188;1099;23612;-64
2020/12/02 08:36:44;;;;;;;14.40;8.20;;;;;;;-0.29;82.26;100606.91;127365;1092;23417;-62
2020/12/02 08:39:12;;;;;;;20.00;8.60;;;;;;;-0.29;82.51;100618.47;125755;1093;24138;-63
2020/12/02 08:41:48;;;;;;;17.40;9.60;;;;;;;-0.30;82.35;100607.91;130087;1093;24198;-64
2020/12/02 08:44:16;;;;;;;32.17;12.80;;;;;;;-0.32;82.49;100604.55;130154;1093;24268;-64
2020/12/02 08:46:54;;;;;;;20.23;10.63;;;;;;;-0.32;82.35;100608.08;130099;1093;23158;-64
2020/12/02 08:49:29;;;;;;;16.40;9.97;;;;;;;-0.32;82.78;100604.55;130246;1099;23178;-64
2020/12/02 08:51:57;;;;;;;18.47;9.90;;;;;;;-0.31;82.70;100603.56;130005;1093;23245;-64
2020/12/02 08:54:25;;;;;;;18.23;9.57;;;;;;;-0.30;82.57;100597.20;130226;1093;24347;-64
2020/12/02 08:57:03;;;;;;;18.53;11.57;;;;;;;-0.29;83.12;100599.72;130078;1099;23236;-64
2020/12/02 08:59:31;;;;;;;18.57;9.47;;;;;;;-0.28;82.20;100593.34;130208;1093;23222;-64
2020/12/02 09:02:03;;;;;;;14.93;9.13;;;;;;;-0.26;82.88;100591.34;130107;1093;23157;-64
2020/12/02 09:04:36;;;;;;;17.73;9.28;;;;;;;-0.22;82.05;100597.22;130182;1093;23950;-64
2020/12/02 09:07:03;;;;;;;13.30;8.10;;;;;;;-0.24;82.55;100594.70;130080;1092;24229;-64
2020/12/02 09:09:31;;;;;;;17.77;9.53;;;;;;;-0.24;81.88;100592.02;130222;1098;23216;-64
2020/12/02 09:12:00;;;;;;;18.10;10.60;;;;;;;-0.24;82.71;100600.05;130110;1092;23267;-62
2020/12/02 09:14:27;;;;;;;15.50;9.35;;;;;;;-0.22;82.97;100594.54;130256;1092;23204;-64
2020/12/02 09:16:56;;;;;;;18.63;9.97;;;;;;;-0.23;82.09;100592.86;126968;1098;23416;-65
2020/12/02 09:19:24;;;;;;;17.20;10.10;;;;;;;-0.24;82.04;100594.70;130277;1093;23214;-64
2020/12/02 09:21:52;;;;;;;19.77;10.60;;;;;;;-0.25;81.90;100584.14;130043;1093;23164;-64
2020/12/02 09:24:19;;;;;;;16.13;10.53;;;;;;;-0.24;81.84;100583.15;130182;1093;23200;-64
2020/12/02 09:26:47;;;;;;;17.30;10.40;;;;;;;-0.26;81.78;100585.14;130198;1092;23839;-63
2020/12/02 09:29:18;;;;;;;44.40;23.20;;;;;;;-0.27;81.93;100578.95;130128;1099;23226;-64
2020/12/02 09:31:45;;;;;;;20.23;11.33;;;;;;;-0.26;81.86;100580.63;130214;1093;23167;-64
2020/12/02 09:34:13;;;;;;;20.47;12.33;;;;;;;-0.23;81.95;100590.19;130102;1093;23262;-64
2020/12/02 09:36:41;;;;;;;18.73;11.37;;;;;;;-0.24;81.73;100577.80;130243;1093;23202;-64
2020/12/02 09:39:09;;;;;;;17.30;9.57;;;;;;;-0.28;82.22;100576.43;130068;1093;23178;-64
2020/12/02 09:41:40;;;;;;;21.17;11.77;;;;;;;-0.28;82.45;100581.79;130027;1099;23164;-64
2020/12/02 09:44:39;;;;;;;28.83;14.00;;;;;;;-0.32;83.02;100572.42;130078;1093;23224;-63
2020/12/02 09:47:15;;;;;;;26.68;12.58;;;;;;;-0.29;82.26;100580.14;126719;1093;24810;-63
2020/12/02 09:49:44;;;;;;;20.48;10.50;;;;;;;-0.29;82.74;100580.14;125823;1098;23911;-67
2020/12/02 09:52:12;;;;;;;25.93;12.07;;;;;;;-0.28;82.10;100577.27;130242;1093;23179;-66
2020/12/02 09:54:44;;;;;;;24.90;12.33;;;;;;;-0.26;83.19;100575.27;130049;1093;23956;-66
2020/12/02 09:57:26;;;;;;;23.50;12.30;;;;;;;-0.22;82.22;100579.31;130292;1099;23235;-66
2020/12/02 09:59:58;;;;;;;22.20;12.67;;;;;;;-0.21;82.89;100582.83;130081;1092;24207;-66
2020/12/02 10:02:38;;;;;;;26.03;13.43;;;;;;;-0.23;82.84;100579.47;130216;1092;23210;-65
2020/12/02 10:05:29;;;;;;;33.10;14.07;;;;;;;-0.23;82.80;100579.47;130116;1099;23215;-66
2020/12/02 10:08:19;;;;;;;22.20;11.87;;;;;;;-0.21;83.03;100577.47;130212;1093;23226;-66
2020/12/02 10:11:03;;;;;;;27.60;12.70;;;;;;;-0.19;82.27;100576.31;130056;1093;23300;-66
2020/12/02 10:14:04;;;;;;;26.37;12.23;;;;;;;-0.17;81.94;100578.84;130233;1099;24147;-66
2020/12/02 10:16:40;;;;;;;22.00;11.80;;;;;;;-0.17;82.71;100573.48;127723;1093;26401;-65
2020/12/02 10:19:29;;;;;;;26.15;14.00;;;;;;;-0.13;83.07;100578.33;130112;1092;23232;-65
2020/12/02 10:22:26;;;;;;;21.33;11.80;;;;;;;-0.11;82.75;100572.81;130239;1093;23866;-66
2020/12/02 10:25:05;;;;;;;21.70;11.73;;;;;;;-0.12;81.82;100574.65;129749;1096;23188;-66
2020/12/02 10:27:38;;;;;;;20.57;12.30;;;;;;;-0.08;82.20;100580.52;129865;1096;23171;-66
2020/12/02 10:30:17;;;;;;;16.35;9.60;;;;;;;-0.05;82.52;100575.69;129733;1096;23275;-66
2020/12/02 10:33:26;;;;;;;21.63;10.93;;;;;;;0.00;82.54;100577.88;129636;1100;23245;-66
2020/12/02 10:35:54;;;;;;;17.35;10.68;;;;;;;0.05;81.81;100577.37;129386;1100;23227;-66
2020/12/02 10:38:43;;;;;;;17.30;10.23;;;;;;;0.06;81.44;100574.53;129541;1100;23172;-66
2020/12/02 10:41:17;;;;;;;18.20;10.40;;;;;;;0.08;81.55;100567.17;129436;1100;23181;-66
2020/12/02 10:44:10;;;;;;;18.07;10.40;;;;;;;0.08;82.16;100569.01;129565;1100;23236;-66
2020/12/02 10:46:41;;;;;;;16.93;9.70;;;;;;;0.12;82.06;100575.72;129237;1099;24282;-65
2020/12/02 10:49:21;;;;;;;21.40;11.60;;;;;;;0.15;82.28;100572.69;129536;1105;23320;-66
2020/12/02 10:51:54;;;;;;;19.95;11.55;;;;;;;0.09;81.24;100566.17;129343;1100;23623;-66
2020/12/02 10:54:24;;;;;;;19.03;10.60;;;;;;;0.15;81.65;100578.05;129540;1099;24778;-66
2020/12/02 10:56:55;;;;;;;19.27;10.83;;;;;;;0.14;81.99;100571.88;129378;1100;24675;-65
2020/12/02 10:59:23;;;;;;;19.20;10.93;;;;;;;0.14;82.37;100574.56;129505;1099;23581;-66
2020/12/02 11:01:51;;;;;;;18.53;10.90;;;;;;;0.13;81.99;100567.52;129515;1100;23204;-66
2020/12/02 11:04:19;;;;;;;21.13;11.23;;;;;;;0.15;81.83;100573.53;129876;1096;23206;-66
2020/12/02 11:06:53;;;;;;;22.70;10.50;;;;;;;0.13;82.03;100564.84;129892;1092;23176;-65
2020/12/02 11:09:53;;;;;;;36.75;13.40;;;;;;;0.16;81.75;100567.17;130230;1098;23231;-66
2020/12/02 11:12:47;;;;;;;32.90;15.23;;;;;;;0.11;82.04;100566.84;130055;1093;23180;-66
2020/12/02 11:15:26;;;;;;;33.03;13.13;;;;;;;0.07;81.72;100570.84;130217;1093;23968;-65
2020/12/02 11:18:12;;;;;;;31.63;14.43;;;;;;;0.01;81.54;100555.42;130106;1092;23162;-66
2020/12/02 11:20:46;;;;;;;23.25;12.70;;;;;;;-0.02;82.05;100559.30;130270;1093;23160;-66
2020/12/02 11:23:21;;;;;;;25.10;12.57;;;;;;;-0.04;81.26;100560.45;130116;1093;23815;-66
2020/12/02 11:25:53;;;;;;;23.05;13.05;;;;;;;-0.05;81.40;100554.25;130272;1098;23297;-66
2020/12/02 11:28:21;;;;;;;25.33;12.87;;;;;;;-0.04;82.43;100555.94;130061;1093;23267;-66
2020/12/02 11:30:49;;;;;;;26.65;13.65;;;;;;;-0.05;82.30;100558.77;130264;1093;23202;-66
2020/12/02 11:33:44;;;;;;;32.90;16.70;;;;;;;-0.03;82.61;100565.65;130126;1090;23163;-63
2020/12/02 11:36:37;;;;;;;31.20;15.37;;;;;;;-0.06;83.04;100557.94;130252;1090;23263;-63